Time;durP1;ratioP1;P1;durP2;ratioP2;P2;SDS_P1;SDS_P2;PMS_P1;PMS_P2;Temp;Humidity;BMP_temperature;BMP_pressure;BME280_temperature;BME280_humidity;BME280_pressure;Samples;Min_cycle;Max_cycle;Signal;HPM_P1;HPM_P2
2024/02/15 00:10:04;;;;;;;43.50;22.90;;;;;;;6.05;80.65;99051.37;435378;1255;98927;-40
2024/02/15 00:20:12;;;;;;;39.60;20.90;;;;;;;6.01;80.94;99054.92;435336;1256;107518;-41
2024/02/15 00:30:19;;;;;;;39.40;21.20;;;;;;;5.96;81.07;99062.24;435452;1256;98001;-40
2024/02/15 00:40:27;;;;;;;34.50;19.30;;;;;;;5.98;81.18;99064.19;435203;1257;111900;-40
2024/02/15 00:50:34;;;;;;;30.30;17.70;;;;;;;6.09;81.30;99078.57;435196;1255;107512;-41
2024/02/15 01:00:41;;;;;;;35.30;19.00;;;;;;;6.15;81.54;99083.27;435385;1256;99314;-40
2024/02/15 01:10:49;;;;;;;27.80;17.60;;;;;;;6.10;81.83;99083.48;435479;1254;107302;-41
2024/02/15 01:20:55;;;;;;;35.50;19.40;;;;;;;6.05;81.87;99076.73;435475;1250;98021;-40
2024/02/15 01:31:03;;;;;;;29.30;15.80;;;;;;;6.09;81.92;99065.08;435314;1254;112732;-41
2024/02/15 01:41:11;;;;;;;26.20;15.80;;;;;;;6.17;82.09;99050.66;435370;1256;109886;-41
2024/02/15 01:51:19;;;;;;;36.70;17.20;;;;;;;6.21;82.33;99050.12;435338;1251;99246;-40
2024/02/15 02:01:26;;;;;;;29.80;17.40;;;;;;;6.19;82.66;99041.50;435452;1255;107917;-40
2024/02/15 02:11:34;;;;;;;30.70;16.20;;;;;;;6.13;82.54;99047.25;435652;1251;98001;-39
2024/02/15 02:21:41;;;;;;;26.50;15.90;;;;;;;6.17;82.57;99044.39;436323;1248;110507;-42
2024/02/15 02:41:55;;;;;;;29.90;15.90;;;;;;;6.29;82.92;99032.31;435480;1253;99218;-41
2024/02/15 02:52:04;;;;;;;30.30;17.10;;;;;;;6.29;83.04;99026.41;435618;1253;108513;-40
2024/02/15 03:02:11;;;;;;;31.90;16.80;;;;;;;6.21;83.17;99020.30;435566;1253;98251;-40
2024/02/15 03:12:18;;;;;;;27.10;15.00;;;;;;;6.15;83.11;99030.92;435595;1253;110738;-40
2024/02/15 03:22:27;;;;;;;28.80;16.00;;;;;;;6.17;83.18;99039.96;435513;1253;108435;-41
2024/02/15 03:32:34;;;;;;;23.70;15.90;;;;;;;6.12;83.49;99042.36;435799;1250;99254;-40
2024/02/15 03:42:41;;;;;;;29.40;17.80;;;;;;;6.01;83.66;99044.35;435517;1253;109303;-43
2024/02/15 03:52:47;;;;;;;32.70;16.40;;;;;;;6.02;83.70;99043.91;435498;1253;99211;-40
2024/02/15 04:02:55;;;;;;;34.20;15.70;;;;;;;6.07;83.82;99040.06;435420;1253;111329;-40
2024/02/15 04:13:03;;;;;;;28.50;15.60;;;;;;;6.12;83.83;99042.45;434827;1253;707364;-41
2024/02/15 04:23:10;;;;;;;39.50;19.30;;;;;;;6.06;84.08;99041.67;435589;1253;99251;-41
2024/02/15 04:33:17;;;;;;;27.30;15.30;;;;;;;6.04;84.14;99033.75;435385;1253;107225;-40
2024/02/15 04:43:24;;;;;;;30.60;16.60;;;;;;;6.08;84.26;99034.09;435445;1251;99234;-40
2024/02/15 04:53:32;;;;;;;39.50;19.00;;;;;;;6.18;84.56;99032.41;435783;1251;113014;-40
2024/02/15 05:03:39;;;;;;;33.00;18.80;;;;;;;6.16;84.57;99039.58;435582;1251;108676;-39
2024/02/15 05:13:47;;;;;;;35.80;18.10;;;;;;;6.10;84.54;99044.69;435459;1253;99246;-40
2024/02/15 05:23:55;;;;;;;41.20;18.40;;;;;;;6.12;84.39;99042.48;435483;1253;111029;-41
2024/02/15 05:34:02;;;;;;;35.10;17.20;;;;;;;6.21;84.51;99054.27;435433;1253;107378;-41
2024/02/15 05:44:10;;;;;;;50.80;24.10;;;;;;;6.26;84.68;99058.14;435548;1251;99266;-40
2024/02/15 05:54:18;;;;;;;51.40;26.10;;;;;;;6.22;84.72;99066.00;435570;1253;107857;-40
2024/02/15 06:04:26;;;;;;;56.60;28.50;;;;;;;6.18;84.85;99070.86;435696;1253;99240;-40
2024/02/15 06:14:34;;;;;;;62.30;35.70;;;;;;;6.18;84.73;99074.14;435564;1253;110667;-40
2024/02/15 06:24:42;;;;;;;60.30;32.30;;;;;;;6.27;84.87;99083.04;435457;1251;106783;-40
2024/02/15 06:45:14;;;;;;;80.20;50.80;;;;;;;6.30;84.99;99094.54;435435;1253;107101;-39
2024/02/15 06:55:22;;;;;;;72.30;41.70;;;;;;;6.29;85.10;99095.17;435580;1251;99244;-40
2024/02/15 07:05:29;;;;;;;56.70;30.20;;;;;;;6.41;85.08;99090.10;435512;1253;110671;-40
2024/02/15 07:25:42;;;;;;;52.80;31.70;;;;;;;6.97;85.50;99106.45;435388;1253;99096;-39
2024/02/15 07:45:56;;;;;;;41.30;21.00;;;;;;;7.41;85.26;99102.83;435391;1253;99234;-40
2024/02/15 07:56:03;;;;;;;41.70;20.50;;;;;;;7.66;85.12;99097.10;435354;1253;111763;-40
2024/02/15 08:06:12;;;;;;;44.90;24.70;;;;;;;7.85;84.84;99086.09;435569;1253;108173;-40
2024/02/15 08:16:22;;;;;;;56.50;26.80;;;;;;;8.02;84.89;99092.46;435475;1253;97983;-39
2024/02/15 08:26:29;;;;;;;40.00;21.60;;;;;;;8.88;85.51;99085.09;435430;1253;106909;-40
2024/02/15 08:36:39;;;;;;;33.80;20.60;;;;;;;9.92;84.17;99088.69;435523;1251;97996;-40
2024/02/15 08:46:47;;;;;;;44.10;21.50;;;;;;;9.99;83.62;99097.02;435327;1251;110736;-39
2024/02/15 08:56:58;;;;;;;35.30;17.60;;;;;;;10.68;83.25;99098.98;435489;1253;107248;-40
2024/02/15 09:07:07;;;;;;;30.30;17.50;;;;;;;10.63;82.07;99097.94;435465;1249;99109;-42
2024/02/15 09:17:14;;;;;;;35.80;17.10;;;;;;;10.41;81.37;99096.95;435502;1253;107125;-40
2024/02/15 09:27:21;;;;;;;27.30;15.10;;;;;;;10.56;81.37;99094.91;435509;1251;99237;-40
2024/02/15 09:47:32;;;;;;;32.80;14.30;;;;;;;11.36;79.96;99094.77;435350;1253;107054;-40
2024/02/15 09:57:39;;;;;;;25.80;13.90;;;;;;;11.85;80.09;99091.40;435571;1251;99231;-41
2024/02/15 10:07:46;;;;;;;27.00;14.40;;;;;;;12.20;79.26;99091.67;435381;1253;108394;-42
2024/02/15 10:40:23;;;;;;;20.20;10.10;;;;;;;12.43;76.36;99070.31;435169;1264;106914;-40
2024/02/15 10:50:30;;;;;;;15.40;8.80;;;;;;;12.25;75.96;99067.18;435364;1257;99247;-40
2024/02/15 11:10:47;;;;;;;15.10;8.40;;;;;;;12.23;76.14;99061.23;435505;1255;98260;-40
2024/02/15 11:20:56;;;;;;;14.60;8.20;;;;;;;12.22;75.50;99055.34;435434;1256;110800;-40
2024/02/15 11:41:11;;;;;;;15.80;9.60;;;;;;;12.49;75.42;99048.09;435372;1251;98383;-41
2024/02/15 12:22:27;;;;;;;10.40;6.60;;;;;;;12.62;75.02;99021.01;435313;1251;107374;-40
2024/02/15 12:32:35;;;;;;;11.00;5.70;;;;;;;12.62;75.12;99018.68;435313;1251;101496;-40
2024/02/15 12:52:51;;;;;;;13.10;7.30;;;;;;;12.36;74.34;99004.90;435366;1251;99263;-41
2024/02/15 13:02:57;;;;;;;;;;;;;;;12.34;74.25;98999.61;435495;1254;111510;-40
2024/02/15 13:13:05;;;;;;;14.70;8.50;;;;;;;12.33;74.28;98991.52;435348;1254;108397;-40
2024/02/15 13:33:21;;;;;;;12.60;7.40;;;;;;;12.62;74.95;98986.41;435478;1263;107522;-40
2024/02/15 13:43:28;;;;;;;12.50;7.10;;;;;;;12.63;74.82;98984.21;435290;1251;97920;-40
2024/02/15 13:53:37;;;;;;;21.90;12.10;;;;;;;12.58;74.59;98980.50;435397;1253;112972;-41
2024/02/15 14:03:45;;;;;;;12.60;8.20;;;;;;;12.47;74.40;98975.73;435236;1254;108501;-40
2024/02/15 14:24:00;;;;;;;15.90;8.20;;;;;;;12.47;74.61;98977.70;435320;1254;110204;-40
2024/02/15 14:34:05;;;;;;;13.20;7.70;;;;;;;12.33;74.55;98986.12;435325;1251;97970;-39
2024/02/15 14:54:18;;;;;;;19.60;8.40;;;;;;;11.96;74.53;98996.10;435011;1254;108654;-41
2024/02/15 15:24:43;;;;;;;14.10;7.40;;;;;;;11.49;74.64;98992.33;435351;1251;99240;-40
2024/02/15 15:34:52;;;;;;;15.10;8.60;;;;;;;11.40;74.84;99003.48;435170;1254;110947;-40
2024/02/15 15:44:59;;;;;;;31.70;19.80;;;;;;;11.24;75.28;99006.62;435584;1251;108203;-40
2024/02/15 16:05:12;;;;;;;31.10;15.90;;;;;;;10.64;75.51;99025.42;435335;1251;107121;-40
2024/02/15 16:15:20;;;;;;;38.70;21.20;;;;;;;10.33;75.79;99030.58;434991;1250;538964;-40
2024/02/15 16:25:26;;;;;;;37.40;18.80;;;;;;;10.17;76.02;99041.72;435356;1250;111381;-40
2024/02/15 16:35:36;;;;;;;44.10;25.70;;;;;;;10.00;76.19;99048.11;435236;1254;108271;-39
2024/02/15 16:45:41;;;;;;;;;;;;;;;9.73;76.65;99048.48;435445;1253;99234;-41
2024/02/15 16:55:48;;;;;;;64.60;36.30;;;;;;;9.41;76.94;99056.65;435402;1254;107826;-40
2024/02/15 17:05:57;;;;;;;54.70;30.90;;;;;;;9.13;77.20;99064.44;435326;1251;99246;-41
2024/02/15 17:16:04;;;;;;;75.40;41.80;;;;;;;9.03;77.58;99066.23;435265;1249;110690;-38
2024/02/15 17:26:11;;;;;;;88.40;47.00;;;;;;;8.97;77.73;99070.02;435265;1253;107106;-40
2024/02/15 17:36:19;;;;;;;88.70;47.30;;;;;;;8.91;77.96;99076.58;435295;1251;99205;-40
2024/02/15 17:46:28;;;;;;;88.90;51.60;;;;;;;8.81;78.39;99080.58;435420;1254;108266;-40
2024/02/15 17:56:35;;;;;;;101.50;55.40;;;;;;;8.57;78.50;99082.09;435493;1250;98824;-39
2024/02/15 18:06:43;;;;;;;94.60;50.60;;;;;;;8.26;78.89;99086.40;435380;1254;111436;-40
2024/02/15 18:16:50;;;;;;;91.20;51.60;;;;;;;8.06;79.03;99092.67;435232;1253;108091;-39
2024/02/15 18:26:58;;;;;;;75.00;39.00;;;;;;;7.98;79.41;99096.02;435293;1253;99212;-39
2024/02/15 18:37:06;;;;;;;89.90;42.70;;;;;;;8.06;79.97;99100.38;435289;1251;107621;-40
2024/02/15 18:47:14;;;;;;;109.30;56.50;;;;;;;8.08;80.24;99100.94;435540;1254;99105;-40
2024/02/15 18:57:22;;;;;;;95.10;52.00;;;;;;;8.00;80.70;99092.77;435224;1253;111633;-40
2024/02/15 19:07:30;;;;;;;79.90;44.90;;;;;;;8.00;81.03;99087.70;435259;1251;108795;-40
2024/02/15 19:17:38;;;;;;;70.00;36.40;;;;;;;7.99;81.26;99085.08;435430;1255;99230;-40
2024/02/15 19:27:46;;;;;;;61.40;32.60;;;;;;;7.95;81.78;99086.98;435437;1254;107692;-40
2024/02/15 19:37:53;;;;;;;67.50;34.30;;;;;;;7.96;82.17;99080.66;435273;1253;98055;-41
2024/02/15 19:48:00;;;;;;;71.90;38.80;;;;;;;7.89;82.62;99073.58;435450;1253;110529;-40
2024/02/15 19:58:06;;;;;;;86.70;48.50;;;;;;;7.71;82.99;99075.66;435342;1254;108690;-40
2024/02/15 20:08:14;;;;;;;78.40;43.20;;;;;;;7.54;83.14;99086.79;435244;1253;99221;-41
2024/02/15 20:28:27;;;;;;;80.00;39.20;;;;;;;7.32;83.82;99089.04;435428;1250;99256;-40
2024/02/15 20:38:34;;;;;;;72.30;37.50;;;;;;;7.28;83.98;99092.62;435350;1250;111829;-40
2024/02/15 20:48:42;;;;;;;84.90;46.00;;;;;;;7.11;84.16;99095.64;435286;1253;107386;-40
2024/02/15 20:58:50;;;;;;;87.90;50.50;;;;;;;6.84;84.17;99096.27;435421;1250;98158;-40
2024/02/15 21:08:58;;;;;;;85.00;45.60;;;;;;;6.76;84.46;99097.02;435206;1250;107468;-39
2024/02/15 21:19:08;;;;;;;84.70;49.40;;;;;;;6.52;84.15;99084.48;435454;1253;99261;-40
2024/02/15 21:29:16;;;;;;;97.80;56.10;;;;;;;6.23;84.21;99076.95;435431;1253;110227;-41
2024/02/15 21:39:24;;;;;;;68.10;40.40;;;;;;;6.14;84.82;99076.91;435306;1251;107668;-41
2024/02/15 21:49:32;;;;;;;56.10;35.30;;;;;;;6.22;85.32;99080.27;435341;1253;99211;-40
2024/02/15 21:59:39;;;;;;;69.30;41.20;;;;;;;6.28;85.75;99074.52;435362;1254;107491;-39
2024/02/15 22:40:59;;;;;;;63.00;41.80;;;;;;;6.02;86.38;99087.69;435252;1253;99221;-40
2024/02/15 22:51:07;;;;;;;77.30;43.50;;;;;;;5.98;86.47;99081.89;435307;1249;109486;-40
2024/02/15 23:01:16;;;;;;;65.00;40.10;;;;;;;5.93;86.81;99083.02;435290;1250;99109;-40
2024/02/15 23:11:23;;;;;;;60.90;37.40;;;;;;;5.91;87.71;99080.61;435433;1250;111885;-40
2024/02/15 23:21:31;;;;;;;65.60;37.40;;;;;;;5.88;88.46;99076.43;435388;1250;107433;-40
2024/02/15 23:41:44;;;;;;;66.30;41.30;;;;;;;5.79;89.11;99068.27;435236;1249;108333;-40
2024/02/15 23:51:51;;;;;;;73.70;43.30;;;;;;;5.72;89.48;99065.98;435287;1266;99375;-40
